Time;durP1;ratioP1;P1;durP2;ratioP2;P2;SDS_P1;SDS_P2;PMS_P1;PMS_P2;Temp;Humidity;BMP_temperature;BMP_pressure;BME280_temperature;BME280_humidity;BME280_pressure;Samples;Min_cycle;Max_cycle;Signal;HPM_P1;HPM_P2
2021/09/23 00:01:29;;;;;;;24.67;4.03;;;;;;;;;;5071718;28;20059;-71
2021/09/23 00:04:02;;;;;;;24.50;4.35;;;;;;;;;;5077972;28;20051;-71
2021/09/23 00:06:27;;;;;;;15.65;3.63;;;;;;;;;;5068009;28;20036;-72
2021/09/23 00:08:54;;;;;;;14.90;4.00;;;;;;;;;;5083907;28;20059;-72
2021/09/23 00:11:19;;;;;;;18.23;4.10;;;;;;;;;;5078578;28;20034;-71
2021/09/23 00:13:45;;;;;;;19.20;4.75;;;;;;;;;;5066376;28;20017;-72
2021/09/23 00:16:11;;;;;;;15.70;4.00;;;;;;;;;;5072236;28;20036;-71
2021/09/23 00:18:37;;;;;;;20.13;4.22;;;;;;;;;;5084392;28;20028;-72
2021/09/23 00:21:04;;;;;;;20.98;4.78;;;;;;;;;;5084399;28;20056;-71
2021/09/23 00:23:30;;;;;;;18.17;4.55;;;;;;;;;;5074789;28;20547;-72
2021/09/23 00:25:55;;;;;;;21.17;4.53;;;;;;;;;;5071016;28;20103;-72
2021/09/23 00:28:21;;;;;;;23.02;5.03;;;;;;;;;;5074293;28;20025;-72
2021/09/23 00:30:47;;;;;;;22.67;4.30;;;;;;;;;;5076458;28;20029;-72
2021/09/23 00:33:12;;;;;;;18.70;4.72;;;;;;;;;;5070182;28;20037;-72
2021/09/23 00:35:38;;;;;;;18.80;3.97;;;;;;;;;;5068884;28;20369;-72
2021/09/23 00:38:04;;;;;;;32.85;5.32;;;;;;;;;;5080262;28;20146;-72
2021/09/23 00:40:30;;;;;;;21.90;4.63;;;;;;;;;;5084647;28;20107;-72
2021/09/23 00:42:55;;;;;;;29.35;4.95;;;;;;;;;;5073077;28;20540;-72
2021/09/23 00:45:22;;;;;;;25.63;5.28;;;;;;;;;;5081339;28;20070;-72
2021/09/23 00:47:49;;;;;;;30.30;4.88;;;;;;;;;;5072661;28;20070;-72
2021/09/23 00:50:15;;;;;;;26.02;4.55;;;;;;;;;;5070237;28;20038;-73
2021/09/23 00:52:41;;;;;;;18.35;4.20;;;;;;;;;;5062353;28;20040;-71
2021/09/23 00:55:10;;;;;;;19.60;5.03;;;;;;;;;;5083552;28;20040;-71
2021/09/23 00:57:36;;;;;;;27.23;5.20;;;;;;;;;;5073990;28;20020;-71
2021/09/23 01:00:05;;;;;;;22.38;4.55;;;;;;;;;;5072289;28;20091;-72
2021/09/23 01:02:31;;;;;;;22.13;4.47;;;;;;;;;;5083140;28;20040;-71
2021/09/23 01:04:56;;;;;;;23.63;4.28;;;;;;;;;;5075690;28;20470;-71
2021/09/23 01:07:22;;;;;;;22.58;4.50;;;;;;;;;;5092415;28;20030;-72
2021/09/23 01:09:53;;;;;;;17.38;3.95;;;;;;;;;;5084753;28;20559;-73
2021/09/23 01:12:20;;;;;;;28.88;5.15;;;;;;;;;;5089097;28;20031;-72
2021/09/23 01:14:47;;;;;;;20.77;4.55;;;;;;;;;;5071818;28;20522;-72
2021/09/23 01:17:13;;;;;;;22.55;4.78;;;;;;;;;;5082271;28;20032;-72
2021/09/23 01:19:41;;;;;;;25.20;4.70;;;;;;;;;;5081635;28;20028;-72
2021/09/23 01:22:07;;;;;;;27.67;5.22;;;;;;;;;;5075095;28;20103;-72
2021/09/23 01:24:32;;;;;;;24.98;5.03;;;;;;;;;;5085511;28;20032;-72
2021/09/23 01:27:00;;;;;;;30.38;6.47;;;;;;;;;;5075160;28;20039;-72
2021/09/23 01:29:26;;;;;;;29.70;5.78;;;;;;;;;;5072462;28;20051;-72
2021/09/23 01:31:52;;;;;;;27.45;5.35;;;;;;;;;;5079357;28;20023;-72
2021/09/23 01:34:19;;;;;;;26.25;4.50;;;;;;;;;;5077453;28;20055;-72
2021/09/23 01:36:45;;;;;;;25.33;4.15;;;;;;;;;;5079686;28;20024;-73
2021/09/23 01:39:20;;;;;;;19.80;5.00;;;;;;;;;;5064606;28;20028;-73
2021/09/23 01:41:46;;;;;;;20.88;4.40;;;;;;;;;;5077175;28;20525;-72
2021/09/23 01:44:12;;;;;;;26.10;4.75;;;;;;;;;;5073798;28;20080;-72
2021/09/23 01:46:37;;;;;;;19.33;4.63;;;;;;;;;;5078068;28;20461;-72
2021/09/23 01:49:03;;;;;;;36.97;5.93;;;;;;;;;;5068042;28;20039;-72
2021/09/23 01:51:28;;;;;;;19.38;4.55;;;;;;;;;;5063487;28;20028;-72
2021/09/23 01:53:54;;;;;;;26.40;5.43;;;;;;;;;;5075718;28;20388;-72
2021/09/23 01:56:20;;;;;;;26.50;6.28;;;;;;;;;;5075525;28;20035;-72
2021/09/23 01:58:46;;;;;;;27.95;5.15;;;;;;;;;;5081128;28;20509;-71
2021/09/23 02:01:12;;;;;;;24.92;5.18;;;;;;;;;;5088225;28;20607;-72
2021/09/23 02:03:38;;;;;;;22.05;4.53;;;;;;;;;;5077093;28;20038;-72
2021/09/23 02:06:04;;;;;;;28.27;5.68;;;;;;;;;;5077968;28;20391;-72
2021/09/23 02:08:29;;;;;;;21.50;5.57;;;;;;;;;;5078691;28;20376;-72
2021/09/23 02:10:55;;;;;;;23.45;5.18;;;;;;;;;;5095369;28;20024;-72
2021/09/23 02:13:21;;;;;;;29.23;6.60;;;;;;;;;;5092307;28;20119;-72
2021/09/23 02:15:46;;;;;;;25.92;5.70;;;;;;;;;;5084235;28;20093;-72
2021/09/23 02:18:12;;;;;;;26.05;5.55;;;;;;;;;;5090743;28;20028;-72
2021/09/23 02:20:37;;;;;;;26.05;5.00;;;;;;;;;;5078166;28;20032;-72
2021/09/23 02:23:03;;;;;;;24.05;4.90;;;;;;;;;;5089077;28;20101;-72
2021/09/23 02:25:29;;;;;;;25.98;5.47;;;;;;;;;;5088863;28;20052;-72
2021/09/23 02:27:54;;;;;;;18.58;5.60;;;;;;;;;;5075052;28;20098;-72
2021/09/23 02:30:20;;;;;;;22.65;5.97;;;;;;;;;;5072453;28;20029;-72
2021/09/23 02:32:46;;;;;;;17.27;4.85;;;;;;;;;;5074595;28;20063;-72
2021/09/23 02:35:11;;;;;;;13.18;4.10;;;;;;;;;;5078408;28;20051;-72
2021/09/23 02:37:37;;;;;;;19.83;5.75;;;;;;;;;;5074670;28;20115;-72
2021/09/23 02:40:03;;;;;;;21.70;5.97;;;;;;;;;;5085490;28;20044;-71
2021/09/23 02:42:28;;;;;;;21.40;6.20;;;;;;;;;;5074713;28;20029;-71
2021/09/23 02:44:54;;;;;;;18.63;5.93;;;;;;;;;;5075580;28;20055;-72
2021/09/23 02:47:22;;;;;;;15.90;4.72;;;;;;;;;;5071374;28;20036;-72
2021/09/23 02:49:49;;;;;;;19.65;5.13;;;;;;;;;;5081976;28;20023;-72
2021/09/23 02:52:15;;;;;;;13.95;4.93;;;;;;;;;;5080032;28;20025;-72
2021/09/23 02:54:41;;;;;;;21.35;6.22;;;;;;;;;;5075121;28;20078;-72
2021/09/23 02:57:06;;;;;;;21.65;6.38;;;;;;;;;;5072429;28;20025;-72
2021/09/23 02:59:32;;;;;;;16.20;5.68;;;;;;;;;;5081067;28;20089;-72
2021/09/23 03:01:57;;;;;;;21.83;5.07;;;;;;;;;;5076105;28;20059;-72
2021/09/23 03:04:23;;;;;;;15.65;4.97;;;;;;;;;;5078684;28;20031;-72
2021/09/23 03:06:48;;;;;;;15.13;5.22;;;;;;;;;;5093489;28;20024;-72
2021/09/23 03:09:14;;;;;;;18.80;5.45;;;;;;;;;;5075872;28;20054;-72
2021/09/23 03:11:42;;;;;;;21.10;5.57;;;;;;;;;;5094850;28;20555;-72
2021/09/23 03:14:07;;;;;;;23.88;5.28;;;;;;;;;;5076128;28;20029;-72
2021/09/23 03:16:33;;;;;;;16.65;4.85;;;;;;;;;;5079959;28;20032;-72
2021/09/23 03:18:58;;;;;;;24.42;5.00;;;;;;;;;;5086877;28;20049;-72
2021/09/23 03:21:24;;;;;;;17.33;4.70;;;;;;;;;;5094311;28;20016;-72
2021/09/23 03:23:49;;;;;;;19.05;6.07;;;;;;;;;;5076851;28;20019;-72
2021/09/23 03:26:15;;;;;;;21.02;4.97;;;;;;;;;;5075901;28;20051;-72
2021/09/23 03:28:41;;;;;;;15.32;5.40;;;;;;;;;;5074794;28;20033;-72
2021/09/23 03:31:07;;;;;;;18.30;4.90;;;;;;;;;;5059851;28;20024;-72
2021/09/23 03:33:33;;;;;;;14.48;4.75;;;;;;;;;;5076582;28;20032;-72
2021/09/23 03:35:59;;;;;;;16.58;5.07;;;;;;;;;;5073828;28;20021;-72
2021/09/23 03:38:24;;;;;;;15.75;5.28;;;;;;;;;;5071336;28;20491;-72
2021/09/23 03:40:51;;;;;;;19.80;5.97;;;;;;;;;;5080914;28;20024;-72
2021/09/23 03:43:18;;;;;;;21.08;5.30;;;;;;;;;;5078862;28;20099;-72
2021/09/23 03:45:44;;;;;;;18.58;5.13;;;;;;;;;;5076906;28;20029;-72
2021/09/23 03:48:10;;;;;;;16.90;5.55;;;;;;;;;;5075281;28;20032;-72
2021/09/23 03:50:36;;;;;;;21.27;5.95;;;;;;;;;;5077622;28;20045;-72
2021/09/23 03:53:02;;;;;;;26.10;6.28;;;;;;;;;;5074313;28;20166;-72
2021/09/23 03:55:28;;;;;;;19.38;5.05;;;;;;;;;;5082231;28;20028;-72
2021/09/23 03:57:55;;;;;;;23.42;5.13;;;;;;;;;;5080561;28;20108;-72
2021/09/23 04:00:22;;;;;;;24.70;4.90;;;;;;;;;;5091170;28;20114;-72
2021/09/23 04:02:48;;;;;;;15.95;5.28;;;;;;;;;;5082171;28;20093;-72
2021/09/23 04:05:14;;;;;;;15.15;5.43;;;;;;;;;;5069638;28;20465;-72
2021/09/23 04:07:39;;;;;;;18.38;5.80;;;;;;;;;;5069756;28;20032;-72
2021/09/23 04:10:07;;;;;;;16.58;4.97;;;;;;;;;;5072721;28;20069;-72
2021/09/23 04:12:33;;;;;;;12.60;4.43;;;;;;;;;;5074171;28;20021;-71
2021/09/23 04:14:58;;;;;;;17.55;4.80;;;;;;;;;;5068389;28;20062;-71
2021/09/23 04:17:24;;;;;;;19.45;5.20;;;;;;;;;;5081371;28;20360;-71
2021/09/23 04:19:50;;;;;;;17.77;5.57;;;;;;;;;;5079298;28;20034;-72
2021/09/23 04:22:15;;;;;;;20.77;5.43;;;;;;;;;;5069255;28;20028;-72
2021/09/23 04:24:41;;;;;;;23.98;5.55;;;;;;;;;;5084401;28;20048;-72
2021/09/23 04:27:07;;;;;;;16.88;4.93;;;;;;;;;;5084334;28;20028;-72
2021/09/23 04:29:33;;;;;;;18.52;5.68;;;;;;;;;;5074157;28;20028;-72
2021/09/23 04:31:58;;;;;;;21.30;5.80;;;;;;;;;;5076694;28;20023;-71
2021/09/23 04:34:24;;;;;;;17.63;5.43;;;;;;;;;;5080593;28;20111;-71
2021/09/23 04:36:50;;;;;;;14.32;4.68;;;;;;;;;;5083551;28;20455;-72
2021/09/23 04:39:18;;;;;;;16.73;5.30;;;;;;;;;;5090616;28;20071;-72
2021/09/23 04:41:44;;;;;;;20.67;5.45;;;;;;;;;;5081514;28;20662;-72
2021/09/23 04:44:10;;;;;;;16.30;4.85;;;;;;;;;;5085475;28;20107;-71
2021/09/23 04:46:36;;;;;;;13.43;4.93;;;;;;;;;;5090122;28;20032;-71
2021/09/23 04:49:02;;;;;;;11.73;5.30;;;;;;;;;;5089266;28;20032;-71
2021/09/23 04:51:28;;;;;;;16.02;5.43;;;;;;;;;;5091309;28;20502;-71
2021/09/23 04:53:54;;;;;;;18.73;4.80;;;;;;;;;;5086841;28;20036;-72
2021/09/23 04:56:21;;;;;;;18.85;5.45;;;;;;;;;;5079291;28;20020;-72
2021/09/23 04:58:46;;;;;;;18.15;5.90;;;;;;;;;;5081020;28;20351;-72
2021/09/23 05:01:12;;;;;;;13.75;5.55;;;;;;;;;;5078233;28;20027;-72
2021/09/23 05:03:38;;;;;;;15.30;5.05;;;;;;;;;;5082755;28;20089;-72
2021/09/23 05:06:03;;;;;;;16.15;5.30;;;;;;;;;;5074151;28;20047;-71
2021/09/23 05:08:29;;;;;;;13.18;4.60;;;;;;;;;;5084048;28;20032;-72
2021/09/23 05:10:55;;;;;;;16.45;4.68;;;;;;;;;;5083365;28;20028;-73
2021/09/23 05:13:20;;;;;;;15.55;4.85;;;;;;;;;;5077412;28;20610;-72
2021/09/23 05:15:46;;;;;;;14.13;4.20;;;;;;;;;;5079623;28;20020;-72
2021/09/23 05:18:12;;;;;;;13.07;4.18;;;;;;;;;;5077378;28;20472;-72
2021/09/23 05:20:37;;;;;;;14.60;5.00;;;;;;;;;;5062911;28;20028;-72
2021/09/23 05:23:04;;;;;;;17.80;4.82;;;;;;;;;;5079379;28;20028;-72
2021/09/23 05:25:30;;;;;;;13.70;4.57;;;;;;;;;;5088304;28;20352;-72
2021/09/23 05:27:56;;;;;;;15.23;4.97;;;;;;;;;;5081626;28;20038;-72
2021/09/23 05:30:22;;;;;;;9.55;4.05;;;;;;;;;;5082278;28;20029;-72
2021/09/23 05:32:48;;;;;;;10.32;4.28;;;;;;;;;;5078971;28;20104;-72
2021/09/23 05:35:13;;;;;;;14.18;4.55;;;;;;;;;;5078536;28;20111;-72
2021/09/23 05:37:39;;;;;;;11.63;3.95;;;;;;;;;;5079881;28;20313;-71
2021/09/23 05:40:07;;;;;;;11.90;5.25;;;;;;;;;;5081648;28;20119;-72
2021/09/23 05:42:32;;;;;;;13.00;4.43;;;;;;;;;;5073646;28;20028;-71
2021/09/23 05:44:58;;;;;;;10.30;4.38;;;;;;;;;;5082177;28;20490;-71
2021/09/23 05:47:23;;;;;;;11.15;4.22;;;;;;;;;;5078529;28;20107;-71
2021/09/23 05:49:49;;;;;;;6.80;3.50;;;;;;;;;;5081479;28;20020;-71
2021/09/23 05:52:16;;;;;;;13.57;4.00;;;;;;;;;;5081176;28;20051;-71
2021/09/23 05:54:43;;;;;;;16.23;4.25;;;;;;;;;;5073128;28;20032;-71
2021/09/23 05:57:08;;;;;;;11.35;3.70;;;;;;;;;;5077737;28;20025;-71
2021/09/23 05:59:34;;;;;;;11.73;3.47;;;;;;;;;;5080149;28;20361;-72
2021/09/23 06:02:00;;;;;;;10.27;3.83;;;;;;;;;;5077394;28;20107;-71
2021/09/23 06:04:25;;;;;;;8.68;4.32;;;;;;;;;;5079294;28;20024;-71
2021/09/23 06:06:51;;;;;;;11.02;3.33;;;;;;;;;;5091028;28;20471;-71
2021/09/23 06:09:17;;;;;;;11.95;4.15;;;;;;;;;;5074926;28;20511;-71
2021/09/23 06:11:42;;;;;;;11.82;3.40;;;;;;;;;;5070910;28;20419;-71
2021/09/23 06:14:08;;;;;;;11.68;3.60;;;;;;;;;;5054936;28;20024;-71
2021/09/23 06:16:35;;;;;;;8.07;3.35;;;;;;;;;;5063579;28;20039;-72
2021/09/23 06:19:03;;;;;;;11.15;3.90;;;;;;;;;;5084092;28;20028;-72
2021/09/23 06:21:28;;;;;;;11.02;4.07;;;;;;;;;;5070382;28;20025;-72
2021/09/23 06:23:55;;;;;;;9.90;3.38;;;;;;;;;;5086497;28;20012;-72
2021/09/23 06:26:22;;;;;;;13.02;4.03;;;;;;;;;;5078974;28;20016;-72
2021/09/23 06:28:49;;;;;;;10.20;4.18;;;;;;;;;;5061033;28;20040;-72
2021/09/23 06:31:14;;;;;;;11.77;3.70;;;;;;;;;;5064998;28;20030;-72
2021/09/23 06:33:44;;;;;;;9.38;4.18;;;;;;;;;;5076608;28;20106;-72
2021/09/23 06:36:10;;;;;;;10.57;3.50;;;;;;;;;;5079892;28;20021;-72
2021/09/23 06:38:35;;;;;;;9.00;3.10;;;;;;;;;;5087508;28;20445;-71
2021/09/23 06:41:01;;;;;;;9.88;4.45;;;;;;;;;;5071971;28;20103;-72
2021/09/23 06:43:27;;;;;;;9.73;3.60;;;;;;;;;;5078147;28;20019;-73
2021/09/23 06:45:52;;;;;;;10.35;3.38;;;;;;;;;;5057760;28;20036;-72
2021/09/23 06:48:18;;;;;;;8.43;3.50;;;;;;;;;;5064464;28;20575;-72
2021/09/23 06:50:43;;;;;;;13.43;4.57;;;;;;;;;;5067088;28;20032;-72
2021/09/23 06:53:09;;;;;;;11.77;3.50;;;;;;;;;;5083014;28;20357;-72
2021/09/23 06:55:35;;;;;;;9.75;3.58;;;;;;;;;;5073907;28;20059;-72
2021/09/23 06:58:01;;;;;;;10.57;3.40;;;;;;;;;;5083889;28;20028;-73
2021/09/23 07:00:27;;;;;;;7.85;3.17;;;;;;;;;;5077311;28;20031;-74
2021/09/23 07:02:53;;;;;;;7.38;2.40;;;;;;;;;;5081078;28;20052;-74
2021/09/23 07:05:19;;;;;;;9.18;2.67;;;;;;;;;;5061010;28;20070;-73
2021/09/23 07:07:44;;;;;;;7.57;2.60;;;;;;;;;;5076754;28;20024;-74
2021/09/23 07:10:10;;;;;;;6.85;2.65;;;;;;;;;;5073884;28;20024;-75
2021/09/23 07:12:37;;;;;;;5.07;1.98;;;;;;;;;;5064532;28;20031;-73
2021/09/23 07:15:04;;;;;;;6.80;2.50;;;;;;;;;;5082438;28;20039;-73
2021/09/23 07:17:31;;;;;;;5.45;2.50;;;;;;;;;;5086944;28;20028;-73
2021/09/23 07:19:57;;;;;;;5.45;2.70;;;;;;;;;;5066562;28;20035;-73
2021/09/23 07:22:23;;;;;;;7.57;3.17;;;;;;;;;;5085817;28;20105;-74
2021/09/23 07:24:49;;;;;;;6.65;2.63;;;;;;;;;;5080271;28;20021;-73
2021/09/23 07:27:15;;;;;;;5.18;3.03;;;;;;;;;;5079347;28;20112;-72
2021/09/23 07:29:41;;;;;;;11.85;3.30;;;;;;;;;;5066869;28;20025;-73
2021/09/23 07:32:09;;;;;;;7.57;3.40;;;;;;;;;;5081822;28;20089;-73
2021/09/23 07:34:34;;;;;;;7.43;2.92;;;;;;;;;;5076587;28;20035;-75
2021/09/23 07:37:00;;;;;;;9.45;3.40;;;;;;;;;;5100693;28;20032;-74
2021/09/23 07:39:27;;;;;;;6.93;3.20;;;;;;;;;;5076664;28;20028;-74
2021/09/23 07:41:53;;;;;;;10.43;3.50;;;;;;;;;;5056458;28;20032;-74
2021/09/23 07:44:22;;;;;;;7.45;3.25;;;;;;;;;;5063511;28;20024;-74
2021/09/23 07:46:48;;;;;;;9.30;3.22;;;;;;;;;;5043000;28;20032;-75
2021/09/23 07:49:14;;;;;;;6.68;3.35;;;;;;;;;;5087159;28;20123;-74
2021/09/23 07:51:40;;;;;;;9.13;3.35;;;;;;;;;;5076475;28;20024;-74
2021/09/23 07:54:09;;;;;;;12.48;5.13;;;;;;;;;;5076819;28;20065;-74
2021/09/23 07:56:35;;;;;;;6.68;3.00;;;;;;;;;;5063057;28;20524;-73
2021/09/23 07:59:00;;;;;;;10.13;3.30;;;;;;;;;;5089211;28;20024;-72
2021/09/23 08:01:26;;;;;;;9.40;3.13;;;;;;;;;;5088780;28;20038;-73
2021/09/23 08:03:53;;;;;;;7.55;3.65;;;;;;;;;;5079000;28;20035;-72
2021/09/23 08:06:20;;;;;;;8.95;3.15;;;;;;;;;;5091780;28;20028;-73
2021/09/23 08:08:45;;;;;;;8.32;3.08;;;;;;;;;;5092110;28;20028;-73
2021/09/23 08:11:11;;;;;;;10.68;3.70;;;;;;;;;;5073777;28;20672;-73
2021/09/23 08:13:36;;;;;;;9.10;4.00;;;;;;;;;;5084709;28;20051;-74
2021/09/23 08:16:02;;;;;;;8.75;4.10;;;;;;;;;;5082600;28;20031;-74
2021/09/23 08:18:28;;;;;;;8.30;4.25;;;;;;;;;;5075904;28;20107;-73
2021/09/23 08:20:53;;;;;;;11.65;4.10;;;;;;;;;;5080369;28;20028;-72
2021/09/23 08:23:19;;;;;;;10.27;4.22;;;;;;;;;;5081508;28;20024;-72
2021/09/23 08:25:45;;;;;;;12.20;4.45;;;;;;;;;;5074375;28;20027;-71
2021/09/23 08:28:12;;;;;;;8.05;4.05;;;;;;;;;;5075191;28;20019;-73
2021/09/23 08:30:40;;;;;;;9.70;3.88;;;;;;;;;;5090155;28;20360;-73
2021/09/23 08:33:06;;;;;;;9.73;3.97;;;;;;;;;;5076685;28;20120;-74
2021/09/23 08:35:32;;;;;;;8.15;3.50;;;;;;;;;;5082754;28;20032;-74
2021/09/23 08:37:57;;;;;;;11.73;3.88;;;;;;;;;;5084447;28;20031;-74
2021/09/23 08:40:23;;;;;;;9.23;4.22;;;;;;;;;;5079080;28;20024;-73
2021/09/23 08:42:48;;;;;;;10.50;4.25;;;;;;;;;;5077215;28;20071;-71
2021/09/23 08:45:17;;;;;;;11.43;4.13;;;;;;;;;;5077405;28;20028;-72
2021/09/23 08:47:43;;;;;;;9.93;3.65;;;;;;;;;;5081821;28;20617;-76
2021/09/23 08:50:12;;;;;;;8.05;3.45;;;;;;;;;;5080432;28;20026;-74
2021/09/23 08:52:39;;;;;;;8.88;3.63;;;;;;;;;;5083595;28;20023;-73
2021/09/23 08:55:06;;;;;;;11.50;3.60;;;;;;;;;;5074218;28;20107;-73
2021/09/23 08:57:31;;;;;;;9.02;3.33;;;;;;;;;;5073807;28;20082;-73
2021/09/23 09:00:04;;;;;;;9.55;3.60;;;;;;;;;;5074005;28;20024;-73
2021/09/23 09:02:30;;;;;;;7.25;3.30;;;;;;;;;;5078287;28;20695;-73
2021/09/23 09:04:57;;;;;;;8.68;3.35;;;;;;;;;;5073688;28;20028;-73
2021/09/23 09:07:30;;;;;;;8.90;3.53;;;;;;;;;;5077046;28;20043;-73
2021/09/23 09:10:05;;;;;;;5.88;3.20;;;;;;;;;;5072198;28;20028;-73
2021/09/23 09:12:32;;;;;;;9.65;3.67;;;;;;;;;;5083033;28;20042;-74
2021/09/23 09:15:00;;;;;;;11.73;3.53;;;;;;;;;;5079192;28;20036;-74
2021/09/23 09:17:26;;;;;;;10.40;4.00;;;;;;;;;;5078818;28;20442;-72
2021/09/23 09:19:59;;;;;;;12.30;3.47;;;;;;;;;;5057884;28;20037;-73
2021/09/23 09:22:27;;;;;;;7.43;3.22;;;;;;;;;;5072304;28;20036;-73
2021/09/23 09:25:08;;;;;;;7.32;3.40;;;;;;;;;;5083111;28;20012;-73
2021/09/23 09:27:40;;;;;;;9.20;3.83;;;;;;;;;;5076968;28;20027;-72
2021/09/23 09:30:07;;;;;;;10.38;4.15;;;;;;;;;;5076322;28;20035;-73
2021/09/23 09:32:47;;;;;;;10.30;3.83;;;;;;;;;;5077793;28;20028;-72
2021/09/23 09:35:30;;;;;;;10.88;4.40;;;;;;;;;;5072851;28;20020;-72
2021/09/23 09:37:59;;;;;;;8.15;4.15;;;;;;;;;;5070670;28;20420;-74
2021/09/23 09:40:32;;;;;;;10.00;4.47;;;;;;;;;;5072377;28;20051;-74
2021/09/23 09:43:03;;;;;;;10.50;4.60;;;;;;;;;;5084059;28;20028;-75
2021/09/23 09:45:29;;;;;;;11.60;5.43;;;;;;;;;;5082818;28;20077;-75
2021/09/23 09:47:57;;;;;;;8.70;4.97;;;;;;;;;;5084304;28;20103;-77
2021/09/23 09:50:25;;;;;;;9.75;4.55;;;;;;;;;;5076591;28;20086;-75
2021/09/23 09:53:01;;;;;;;10.65;5.05;;;;;;;;;;5073391;28;20465;-73
2021/09/23 09:55:45;;;;;;;10.23;4.38;;;;;;;;;;5054902;28;20568;-75
2021/09/23 09:58:11;;;;;;;;;;;;;;;;;;5065309;28;20088;-73
2021/09/23 10:00:37;;;;;;;13.05;5.53;;;;;;;;;;5073106;28;19920;-72
2021/09/23 10:03:04;;;;;;;10.05;5.53;;;;;;;;;;5079216;28;20071;-72
2021/09/23 10:05:31;;;;;;;15.50;5.97;;;;;;;;;;5077647;28;20637;-74
2021/09/23 10:07:58;;;;;;;12.75;5.57;;;;;;;;;;5075638;28;20441;-74
2021/09/23 10:10:28;;;;;;;10.50;5.38;;;;;;;;;;5068838;28;20033;-72
2021/09/23 10:12:59;;;;;;;15.90;7.00;;;;;;;;;;5054598;28;20056;-73
2021/09/23 10:15:25;;;;;;;14.45;6.13;;;;;;;;;;5081587;28;20590;-74
2021/09/23 10:17:54;;;;;;;10.75;6.05;;;;;;;;;;5081632;28;20471;-74
2021/09/23 10:20:22;;;;;;;17.95;6.90;;;;;;;;;;5086282;28;20039;-72
2021/09/23 10:22:48;;;;;;;13.90;6.05;;;;;;;;;;5088543;28;20035;-75
2021/09/23 10:25:30;;;;;;;19.02;6.45;;;;;;;;;;5080323;28;20023;-73
2021/09/23 10:27:58;;;;;;;16.63;6.53;;;;;;;;;;5086385;28;20024;-73
2021/09/23 10:30:45;;;;;;;16.25;7.00;;;;;;;;;;5084425;28;20035;-73
2021/09/23 10:33:10;;;;;;;18.80;7.25;;;;;;;;;;5073071;28;20071;-73
2021/09/23 10:35:37;;;;;;;17.05;7.63;;;;;;;;;;5088567;28;20341;-74
2021/09/23 10:38:07;;;;;;;16.88;6.82;;;;;;;;;;5081960;28;20039;-73
2021/09/23 10:40:36;;;;;;;14.98;6.57;;;;;;;;;;5081106;28;20036;-74
2021/09/23 10:43:06;;;;;;;13.98;6.28;;;;;;;;;;5085195;28;20474;-74
2021/09/23 10:45:35;;;;;;;12.45;5.82;;;;;;;;;;5074931;28;20024;-74
2021/09/23 10:48:01;;;;;;;11.93;6.00;;;;;;;;;;5086887;28;20031;-73
2021/09/23 10:50:31;;;;;;;11.93;6.22;;;;;;;;;;5075490;28;20028;-74
2021/09/23 10:52:57;;;;;;;11.35;6.28;;;;;;;;;;5074554;28;20036;-73
2021/09/23 10:55:25;;;;;;;14.55;6.55;;;;;;;;;;5086456;28;20040;-73
2021/09/23 10:57:54;;;;;;;11.90;6.43;;;;;;;;;;5074235;28;20036;-74
2021/09/23 11:00:25;;;;;;;14.05;6.50;;;;;;;;;;5086466;28;20028;-74
2021/09/23 11:02:55;;;;;;;14.23;5.95;;;;;;;;;;5077442;28;20036;-73
2021/09/23 11:05:22;;;;;;;16.65;7.40;;;;;;;;;;5081412;28;20438;-74
2021/09/23 11:07:50;;;;;;;12.68;7.20;;;;;;;;;;5088109;28;20026;-75
2021/09/23 11:10:24;;;;;;;12.98;6.53;;;;;;;;;;5080545;28;20024;-76
2021/09/23 11:12:53;;;;;;;;;;;;;;;;;;5075534;28;20376;-74
2021/09/23 11:15:27;;;;;;;13.90;6.25;;;;;;;;;;5073855;28;19958;-74
2021/09/23 11:17:57;;;;;;;;;;;;;;;;;;5074021;28;20035;-75
2021/09/23 11:20:32;;;;;;;14.38;6.47;;;;;;;;;;5073407;28;19912;-74
2021/09/23 11:23:16;;;;;;;16.83;7.20;;;;;;;;;;5082477;28;20029;-74
2021/09/23 11:25:50;;;;;;;17.58;7.20;;;;;;;;;;5076145;28;20460;-73
2021/09/23 11:28:20;;;;;;;18.45;7.22;;;;;;;;;;5073373;28;20472;-74
2021/09/23 11:30:46;;;;;;;14.32;7.38;;;;;;;;;;5079403;28;20024;-72
2021/09/23 11:33:12;;;;;;;14.77;7.50;;;;;;;;;;5074602;28;20059;-71
2021/09/23 11:35:41;;;;;;;11.70;7.18;;;;;;;;;;5079488;28;20027;-72
2021/09/23 11:38:09;;;;;;;14.55;7.28;;;;;;;;;;5091317;28;20054;-72
2021/09/23 11:40:38;;;;;;;21.27;7.30;;;;;;;;;;5074290;28;20347;-71
2021/09/23 11:43:09;;;;;;;14.30;8.07;;;;;;;;;;5083992;28;20024;-72
2021/09/23 11:45:40;;;;;;;15.68;7.13;;;;;;;;;;5085536;28;20027;-72
2021/09/23 11:48:11;;;;;;;19.70;7.47;;;;;;;;;;5076206;28;20028;-72
2021/09/23 11:50:38;;;;;;;14.77;7.65;;;;;;;;;;5090128;28;20086;-70
2021/09/23 11:53:09;;;;;;;16.05;7.88;;;;;;;;;;5072222;28;20032;-72
2021/09/23 11:55:42;;;;;;;15.27;8.35;;;;;;;;;;5068105;28;20063;-71
2021/09/23 11:58:13;;;;;;;20.05;8.48;;;;;;;;;;5081174;28;20024;-72
2021/09/23 12:00:42;;;;;;;16.50;7.18;;;;;;;;;;5054591;28;20573;-71
2021/09/23 12:03:09;;;;;;;18.77;8.48;;;;;;;;;;5074248;28;20032;-72
2021/09/23 12:05:34;;;;;;;15.85;7.88;;;;;;;;;;5071862;28;20472;-71
2021/09/23 12:08:18;;;;;;;15.13;7.40;;;;;;;;;;5089854;28;20020;-72
2021/09/23 12:10:47;;;;;;;11.82;6.57;;;;;;;;;;5072752;28;20055;-72
2021/09/23 12:13:20;;;;;;;14.38;7.18;;;;;;;;;;5073544;28;20028;-70
2021/09/23 12:15:51;;;;;;;14.90;7.05;;;;;;;;;;5071818;28;20021;-70
2021/09/23 12:18:16;;;;;;;16.58;7.53;;;;;;;;;;5078909;28;20494;-71
2021/09/23 12:20:45;;;;;;;11.90;6.03;;;;;;;;;;5079868;28;20115;-74
2021/09/23 12:23:30;;;;;;;16.95;6.65;;;;;;;;;;5081104;28;20020;-71
2021/09/23 12:26:06;;;;;;;18.35;7.13;;;;;;;;;;5053236;28;20050;-70
2021/09/23 12:28:32;;;;;;;19.67;7.28;;;;;;;;;;5070845;28;20034;-73
2021/09/23 12:31:02;;;;;;;14.32;6.68;;;;;;;;;;5077910;28;20167;-71
2021/09/23 12:33:28;;;;;;;13.23;6.40;;;;;;;;;;5073106;28;20050;-72
2021/09/23 12:36:14;;;;;;;18.00;6.90;;;;;;;;;;5080953;28;20039;-71
2021/09/23 12:38:40;;;;;;;17.67;6.70;;;;;;;;;;5034043;28;20032;-72
2021/09/23 12:41:23;;;;;;;19.42;7.55;;;;;;;;;;5051624;28;20028;-71
2021/09/23 12:43:50;;;;;;;15.60;6.40;;;;;;;;;;5066771;28;20020;-72
2021/09/23 12:46:16;;;;;;;17.92;7.40;;;;;;;;;;5081556;28;20035;-73
2021/09/23 12:48:43;;;;;;;13.85;6.47;;;;;;;;;;5076604;28;20027;-71
2021/09/23 12:51:10;;;;;;;15.18;6.65;;;;;;;;;;5084839;28;20467;-72
2021/09/23 12:53:36;;;;;;;12.93;6.68;;;;;;;;;;5076580;28;20024;-71
2021/09/23 12:56:07;;;;;;;22.67;7.68;;;;;;;;;;5080585;28;20438;-74
2021/09/23 12:58:33;;;;;;;14.18;7.07;;;;;;;;;;5070963;28;20025;-74
2021/09/23 13:01:15;;;;;;;18.30;7.68;;;;;;;;;;5080563;28;20069;-72
2021/09/23 13:03:42;;;;;;;14.50;7.20;;;;;;;;;;5068507;28;20111;-71
2021/09/23 13:06:08;;;;;;;20.20;8.48;;;;;;;;;;5077887;28;20406;-72
2021/09/23 13:08:44;;;;;;;17.88;9.27;;;;;;;;;;5082424;28;20047;-72
2021/09/23 13:11:13;;;;;;;16.38;7.47;;;;;;;;;;5077785;28;20020;-73
2021/09/23 13:13:41;;;;;;;16.33;7.90;;;;;;;;;;5080070;28;20035;-72
2021/09/23 13:16:07;;;;;;;23.58;9.45;;;;;;;;;;5087210;28;20028;-72
2021/09/23 13:18:32;;;;;;;16.38;8.13;;;;;;;;;;5087639;28;20676;-73
2021/09/23 13:21:07;;;;;;;28.13;11.82;;;;;;;;;;5065343;28;20023;-72
2021/09/23 13:23:33;;;;;;;27.23;12.48;;;;;;;;;;5079868;28;20016;-71
2021/09/23 13:26:02;;;;;;;34.97;14.10;;;;;;;;;;5078028;28;20028;-71
2021/09/23 13:28:37;;;;;;;31.92;14.38;;;;;;;;;;5074060;28;20028;-72
2021/09/23 13:31:05;;;;;;;35.13;16.52;;;;;;;;;;5080549;28;20384;-71
2021/09/23 13:33:32;;;;;;;35.95;17.55;;;;;;;;;;5079051;28;20031;-72
2021/09/23 13:35:59;;;;;;;35.38;18.52;;;;;;;;;;5083768;28;20127;-73
2021/09/23 13:38:27;;;;;;;44.13;20.95;;;;;;;;;;5077719;28;20450;-72
2021/09/23 13:40:54;;;;;;;47.35;21.75;;;;;;;;;;5089494;28;20024;-73
2021/09/23 13:43:20;;;;;;;35.35;20.23;;;;;;;;;;5055772;28;20480;-71
2021/09/23 13:45:46;;;;;;;37.28;18.88;;;;;;;;;;5074774;28;20059;-72
2021/09/23 13:48:13;;;;;;;35.67;18.00;;;;;;;;;;5075893;28;20028;-72
2021/09/23 13:50:39;;;;;;;42.28;21.25;;;;;;;;;;5072986;28;20029;-72
2021/09/23 13:53:05;;;;;;;31.40;16.00;;;;;;;;;;5074413;28;20124;-74
2021/09/23 13:55:31;;;;;;;42.58;20.33;;;;;;;;;;5068206;28;20091;-73
2021/09/23 13:57:57;;;;;;;30.23;18.02;;;;;;;;;;5060641;28;20195;-71
2021/09/23 14:00:22;;;;;;;36.13;19.55;;;;;;;;;;5067205;28;20032;-71
2021/09/23 14:02:48;;;;;;;31.25;15.30;;;;;;;;;;5079141;28;20072;-70
2021/09/23 14:05:14;;;;;;;41.65;19.98;;;;;;;;;;5073034;28;20153;-70
2021/09/23 14:07:40;;;;;;;31.70;17.08;;;;;;;;;;5071065;28;20301;-72
2021/09/23 14:10:08;;;;;;;38.45;19.50;;;;;;;;;;5083689;28;20327;-71
2021/09/23 14:12:39;;;;;;;37.38;19.00;;;;;;;;;;5070414;28;20032;-71
2021/09/23 14:15:06;;;;;;;34.75;18.65;;;;;;;;;;5089245;28;20052;-71
2021/09/23 14:17:32;;;;;;;34.92;15.05;;;;;;;;;;5077018;28;20024;-72
2021/09/23 14:19:57;;;;;;;34.25;16.40;;;;;;;;;;5071334;28;20408;-71
2021/09/23 14:22:24;;;;;;;36.03;17.63;;;;;;;;;;5070624;28;20025;-72
2021/09/23 14:24:51;;;;;;;24.67;12.93;;;;;;;;;;5072577;28;20020;-72
2021/09/23 14:27:16;;;;;;;34.00;15.45;;;;;;;;;;5071758;28;20107;-70
2021/09/23 14:29:42;;;;;;;33.38;15.30;;;;;;;;;;5077611;28;20175;-70
2021/09/23 14:32:09;;;;;;;24.52;14.18;;;;;;;;;;5080661;28;20098;-71